createdAt,value
2018-02-15T00:00:01.672Z,18.00
2018-02-15T00:01:01.727Z,19.10
2018-02-15T00:02:01.607Z,18.30
2018-02-15T00:03:01.637Z,17.40
2018-02-15T00:04:01.551Z,19.90
2018-02-15T00:05:01.574Z,18.60
2018-02-15T00:06:01.491Z,20.20
2018-02-15T00:07:01.583Z,19.10
2018-02-15T00:08:01.431Z,18.50
2018-02-15T00:09:01.469Z,19.50
2018-02-15T00:10:01.370Z,18.30
2018-02-15T00:11:01.380Z,19.50
2018-02-15T00:12:01.309Z,20.60
2018-02-15T00:13:01.393Z,20.10
2018-02-15T00:14:01.252Z,19.00
2018-02-15T00:15:01.304Z,19.60
2018-02-15T00:16:01.192Z,20.40
2018-02-15T00:17:01.225Z,21.10
2018-02-15T00:18:01.132Z,20.40
2018-02-15T00:19:01.121Z,21.90
2018-02-15T00:20:01.075Z,18.60
2018-02-15T00:21:01.132Z,19.70
2018-02-15T00:22:01.014Z,19.00
2018-02-15T00:23:01.045Z,19.20
2018-02-15T00:24:00.957Z,21.20
2018-02-15T00:25:00.959Z,20.60
2018-02-15T00:26:00.894Z,19.20
2018-02-15T00:27:00.968Z,19.50
2018-02-15T00:28:00.834Z,20.00
2018-02-15T00:29:00.879Z,21.20
2018-02-15T00:30:00.779Z,19.70
2018-02-15T00:31:00.788Z,20.60
2018-02-15T00:32:00.713Z,20.10
2018-02-15T00:33:00.802Z,18.50
2018-02-15T00:34:00.658Z,18.50
2018-02-15T00:35:00.711Z,20.00
2018-02-15T00:36:00.606Z,18.50
2018-02-15T00:37:00.621Z,19.00
2018-02-15T00:38:00.541Z,20.20
2018-02-15T00:39:00.536Z,22.40
2018-02-15T00:40:00.483Z,19.60
2018-02-15T00:41:00.544Z,19.60
2018-02-15T00:42:00.421Z,20.40
2018-02-15T00:43:00.463Z,22.20
2018-02-15T00:44:00.361Z,21.30
2018-02-15T00:45:00.366Z,19.40
2018-02-15T00:46:00.299Z,21.20
2018-02-15T00:47:00.376Z,20.20
2018-02-15T00:48:00.241Z,22.90
2018-02-15T00:49:00.289Z,20.20
2018-02-15T00:50:00.181Z,19.70
2018-02-15T00:51:00.193Z,19.80
2018-02-15T00:52:00.122Z,19.40
2018-02-15T00:53:00.105Z,20.40
2018-02-15T00:54:00.059Z,20.20
2018-02-15T00:55:00.118Z,18.90
2018-02-15T00:56:00.001Z,21.20
2018-02-15T00:57:00.031Z,20.50
2018-02-15T00:57:59.946Z,20.40
2018-02-15T00:58:59.939Z,19.30
2018-02-15T00:59:59.882Z,19.10
2018-02-15T01:00:59.951Z,21.60
2018-02-15T01:01:59.820Z,20.50
2018-02-15T01:02:59.866Z,21.80
2018-02-15T01:03:59.762Z,22.90
2018-02-15T01:04:59.772Z,19.70
2018-02-15T01:05:59.700Z,19.40
2018-02-15T01:06:59.786Z,20.70
2018-02-15T01:07:59.643Z,20.10
2018-02-15T01:08:59.695Z,21.50
2018-02-15T01:09:59.580Z,19.40
2018-02-15T01:10:59.611Z,19.60
2018-02-15T01:11:59.521Z,18.40
2018-02-15T01:12:59.518Z,19.90
2018-02-15T01:13:59.465Z,20.30
2018-02-15T01:14:59.538Z,21.00
2018-02-15T01:15:59.404Z,20.50
2018-02-15T01:16:59.437Z,19.80
2018-02-15T01:17:59.342Z,20.20
2018-02-15T01:18:59.348Z,20.60
2018-02-15T01:19:59.284Z,20.00
2018-02-15T01:20:59.360Z,18.70
2018-02-15T01:21:59.222Z,19.90
2018-02-15T01:22:59.269Z,21.40
2018-02-15T01:23:59.163Z,19.60
2018-02-15T01:24:59.180Z,19.60
2018-02-15T01:25:59.106Z,20.30
2018-02-15T01:26:59.090Z,19.80
2018-02-15T01:27:59.044Z,19.90
2018-02-15T01:28:59.105Z,18.60
2018-02-15T01:29:58.985Z,19.00
2018-02-15T01:30:59.013Z,20.90
2018-02-15T01:31:58.922Z,19.10
2018-02-15T01:32:58.923Z,21.20
2018-02-15T01:33:58.870Z,19.00
2018-02-15T01:34:58.936Z,20.00
2018-02-15T01:35:58.805Z,18.70
2018-02-15T01:36:58.845Z,18.20
2018-02-15T01:37:58.741Z,19.50
2018-02-15T01:38:58.759Z,20.70
2018-02-15T01:39:58.688Z,18.60
2018-02-15T01:40:58.766Z,20.90
2018-02-15T01:41:58.623Z,20.90
2018-02-15T01:42:58.682Z,19.80
2018-02-15T01:43:58.568Z,18.70
2018-02-15T01:44:58.587Z,19.60
2018-02-15T01:45:58.507Z,18.60
2018-02-15T01:46:58.498Z,19.00
2018-02-15T01:47:58.443Z,18.80
2018-02-15T01:48:58.510Z,18.50
2018-02-15T01:49:58.388Z,19.60
2018-02-15T01:50:58.420Z,19.60
2018-02-15T01:51:58.326Z,20.60
2018-02-15T01:52:58.329Z,18.70
2018-02-15T01:53:58.269Z,18.50
2018-02-15T01:54:58.342Z,18.90
2018-02-15T01:55:58.203Z,19.50
2018-02-15T01:56:58.254Z,21.80
2018-02-15T01:57:58.142Z,18.00
2018-02-15T01:58:58.163Z,19.10
2018-02-15T01:59:58.087Z,19.10
2018-02-15T02:00:58.074Z,19.40
2018-02-15T02:01:58.029Z,18.10
2018-02-15T02:02:58.079Z,17.30
2018-02-15T02:03:57.968Z,17.30
2018-02-15T02:04:57.995Z,18.10
2018-02-15T02:05:57.909Z,17.80
2018-02-15T02:06:58.932Z,18.00
2018-02-15T02:07:57.849Z,18.70
2018-02-15T02:08:57.924Z,18.50
2018-02-15T02:09:57.787Z,19.20
2018-02-15T02:10:57.831Z,18.50
2018-02-15T02:11:57.732Z,18.20
2018-02-15T02:12:57.739Z,19.80
2018-02-15T02:13:57.669Z,19.20
2018-02-15T02:14:57.752Z,15.90
2018-02-15T02:15:57.609Z,17.60
2018-02-15T02:16:57.658Z,18.20
2018-02-15T02:17:57.550Z,16.40
2018-02-15T02:18:57.573Z,16.70
2018-02-15T02:19:57.496Z,18.80
2018-02-15T02:20:57.485Z,17.30
2018-02-15T02:21:57.431Z,17.90
2018-02-15T02:22:57.497Z,19.70
2018-02-15T02:23:57.372Z,17.90
2018-02-15T02:24:57.409Z,17.70
2018-02-15T02:25:57.310Z,17.90
2018-02-15T02:26:57.315Z,18.30
2018-02-15T02:27:57.255Z,18.10
2018-02-15T02:28:57.326Z,18.50
2018-02-15T02:29:57.190Z,17.30
2018-02-15T02:30:57.241Z,19.00
2018-02-15T02:31:57.133Z,18.30
2018-02-15T02:32:57.148Z,19.90
2018-02-15T02:33:57.071Z,17.60
2018-02-15T02:34:57.055Z,17.30
2018-02-15T02:35:57.012Z,19.80
2018-02-15T02:36:57.069Z,21.10
2018-02-15T02:37:56.953Z,18.60
2018-02-15T02:38:56.982Z,18.50
2018-02-15T02:39:56.893Z,18.00
2018-02-15T02:40:56.894Z,20.90
2018-02-15T02:41:56.834Z,19.70
2018-02-15T02:42:56.904Z,18.80
2018-02-15T02:43:56.774Z,19.80
2018-02-15T02:44:56.813Z,18.80
2018-02-15T02:45:56.714Z,20.70
2018-02-15T02:46:56.725Z,21.50
2018-02-15T02:47:56.651Z,21.20
2018-02-15T02:48:56.741Z,20.40
2018-02-15T02:49:56.593Z,19.50
2018-02-15T02:50:56.647Z,22.00
2018-02-15T02:51:56.535Z,18.70
2018-02-15T02:52:56.556Z,19.40
2018-02-15T02:53:56.479Z,18.30
2018-02-15T02:54:56.467Z,20.90
2018-02-15T02:55:56.412Z,20.10
2018-02-15T02:56:56.477Z,20.30
2018-02-15T02:57:56.355Z,18.50
2018-02-15T02:58:56.389Z,19.80
2018-02-15T02:59:56.292Z,21.40
2018-02-15T03:00:56.298Z,21.20
2018-02-15T03:01:56.235Z,19.90
2018-02-15T03:02:56.313Z,22.20
2018-02-15T03:03:56.169Z,20.20
2018-02-15T03:04:56.223Z,21.50
2018-02-15T03:05:56.110Z,21.70
2018-02-15T03:06:56.135Z,22.50
2018-02-15T03:07:56.051Z,20.90
2018-02-15T03:08:56.039Z,22.40
2018-02-15T03:09:55.987Z,20.40
2018-02-15T03:10:56.053Z,20.40
2018-02-15T03:11:55.930Z,20.80
2018-02-15T03:12:55.966Z,21.90
2018-02-15T03:13:55.867Z,21.60
2018-02-15T03:14:55.871Z,22.80
2018-02-15T03:15:55.805Z,21.40
2018-02-15T03:16:55.883Z,23.80
2018-02-15T03:17:55.746Z,22.10
2018-02-15T03:18:55.798Z,21.40
2018-02-15T03:19:55.685Z,22.10
2018-02-15T03:20:55.706Z,24.00
2018-02-15T03:21:55.624Z,22.90
2018-02-15T03:22:55.620Z,23.40
2018-02-15T03:23:55.567Z,22.70
2018-02-15T03:24:55.630Z,22.80
2018-02-15T03:25:55.500Z,23.10
2018-02-15T03:26:55.538Z,22.30
2018-02-15T03:27:55.544Z,25.00
2018-02-15T03:28:55.406Z,23.20
2018-02-15T03:29:55.455Z,22.80
2018-02-15T03:30:55.350Z,23.50
2018-02-15T03:31:55.366Z,23.50
2018-02-15T03:32:55.292Z,24.50
2018-02-15T03:33:55.275Z,24.00
2018-02-15T03:34:55.226Z,26.80
2018-02-15T03:35:55.288Z,24.70
2018-02-15T03:36:55.167Z,24.30
2018-02-15T03:37:55.196Z,25.80
2018-02-15T03:38:55.104Z,25.30
2018-02-15T03:39:55.108Z,25.40
2018-02-15T03:40:55.043Z,27.30
2018-02-15T03:41:55.112Z,26.10
2018-02-15T03:42:54.988Z,26.70
2018-02-15T03:43:55.021Z,26.90
2018-02-15T03:44:54.920Z,27.70
2018-02-15T03:45:54.941Z,27.00
2018-02-15T03:46:54.863Z,25.60
2018-02-15T03:47:54.852Z,28.60
2018-02-15T03:48:54.798Z,27.50
2018-02-15T03:49:54.865Z,27.40
2018-02-15T03:50:54.737Z,29.20
2018-02-15T03:51:54.774Z,28.10
2018-02-15T03:52:54.681Z,27.90
2018-02-15T03:53:54.688Z,26.80
2018-02-15T03:54:54.616Z,28.30
2018-02-15T03:55:54.695Z,28.80
2018-02-15T03:56:54.551Z,28.70
2018-02-15T03:57:54.606Z,28.10
2018-02-15T03:58:54.538Z,28.20
2018-02-15T03:59:54.515Z,27.50
2018-02-15T04:00:54.430Z,29.70
2018-02-15T04:01:54.425Z,29.40
2018-02-15T04:02:54.369Z,28.90
2018-02-15T04:03:54.438Z,29.90
2018-02-15T04:04:54.309Z,29.00
2018-02-15T04:05:54.348Z,29.30
2018-02-15T04:06:54.246Z,29.80
2018-02-15T04:07:54.257Z,29.70
2018-02-15T04:08:54.188Z,29.30
2018-02-15T04:09:54.170Z,30.70
2018-02-15T04:10:54.123Z,31.00
2018-02-15T04:11:54.181Z,31.10
2018-02-15T04:12:54.063Z,32.30
2018-02-15T04:13:54.090Z,31.60
2018-02-15T04:14:54.002Z,32.30
2018-02-15T04:15:53.998Z,32.70
2018-02-15T04:16:53.939Z,31.20
2018-02-15T04:17:54.011Z,34.00
2018-02-15T04:18:53.877Z,30.70
2018-02-15T04:19:53.923Z,32.20
2018-02-15T04:20:53.817Z,33.40
2018-02-15T04:21:53.833Z,34.50
2018-02-15T04:22:53.755Z,33.50
2018-02-15T04:23:53.742Z,33.50
2018-02-15T04:24:53.696Z,34.40
2018-02-15T04:25:53.759Z,31.70
2018-02-15T04:26:53.631Z,32.80
2018-02-15T04:27:53.667Z,34.30
2018-02-15T04:28:53.569Z,32.30
2018-02-15T04:29:53.576Z,32.70
2018-02-15T04:30:53.507Z,34.90
2018-02-15T04:31:53.587Z,33.60
2018-02-15T04:32:53.444Z,33.90
2018-02-15T04:33:53.499Z,35.20
2018-02-15T04:34:53.383Z,33.50
2018-02-15T04:35:53.411Z,34.70
2018-02-15T04:36:53.326Z,34.10
2018-02-15T04:37:53.321Z,33.80
2018-02-15T04:38:53.261Z,32.90
2018-02-15T04:39:53.336Z,33.80
2018-02-15T04:40:53.197Z,32.80
2018-02-15T04:41:53.242Z,31.90
2018-02-15T04:42:53.133Z,35.60
2018-02-15T04:43:53.152Z,31.60
2018-02-15T04:44:53.069Z,33.00
2018-02-15T04:45:53.061Z,34.20
2018-02-15T04:46:53.010Z,32.90
2018-02-15T04:47:53.077Z,31.70
2018-02-15T04:48:52.947Z,35.00
2018-02-15T04:49:52.984Z,33.60
2018-02-15T04:50:52.887Z,33.40
2018-02-15T04:51:52.894Z,35.50
2018-02-15T04:52:52.821Z,32.30
2018-02-15T04:53:52.805Z,34.90
2018-02-15T04:54:52.759Z,36.70
2018-02-15T04:55:52.817Z,35.50
2018-02-15T04:56:52.697Z,36.30
2018-02-15T04:57:52.726Z,37.20
2018-02-15T04:58:52.636Z,35.60
2018-02-15T04:59:52.630Z,34.20
2018-02-15T05:00:52.572Z,33.20
2018-02-15T05:01:52.650Z,36.20
2018-02-15T05:02:52.511Z,34.20
2018-02-15T05:03:52.560Z,34.10
2018-02-15T05:04:52.449Z,38.10
2018-02-15T05:05:52.470Z,35.30
2018-02-15T05:06:52.385Z,36.60
2018-02-15T05:07:52.379Z,36.50
2018-02-15T05:08:52.324Z,38.30
2018-02-15T05:09:52.390Z,38.20
2018-02-15T05:10:52.260Z,34.70
2018-02-15T05:11:52.302Z,34.60
2018-02-15T05:12:52.200Z,37.60
2018-02-15T05:13:52.213Z,38.20
2018-02-15T05:14:52.133Z,34.60
2018-02-15T05:15:52.124Z,33.60
2018-02-15T05:16:52.074Z,36.60
2018-02-15T05:17:52.133Z,37.80
2018-02-15T05:18:52.010Z,37.60
2018-02-15T05:19:52.045Z,34.90
2018-02-15T05:20:51.948Z,35.70
2018-02-15T05:21:51.955Z,37.10
2018-02-15T05:22:51.885Z,38.20
2018-02-15T05:23:51.865Z,38.50
2018-02-15T05:24:51.827Z,36.30
2018-02-15T05:25:51.879Z,36.60
2018-02-15T05:26:51.762Z,37.50
2018-02-15T05:27:51.788Z,36.50
2018-02-15T05:28:51.701Z,36.30
2018-02-15T05:29:51.700Z,36.90
2018-02-15T05:30:51.641Z,36.10
2018-02-15T05:31:51.708Z,34.70
2018-02-15T05:32:51.575Z,35.90
2018-02-15T05:33:51.620Z,36.90
2018-02-15T05:34:51.510Z,37.00
2018-02-15T05:35:51.532Z,36.30
2018-02-15T05:36:51.445Z,35.90
2018-02-15T05:37:51.438Z,36.40
2018-02-15T05:38:51.385Z,37.00
2018-02-15T05:39:51.457Z,38.40
2018-02-15T05:40:51.321Z,38.40
2018-02-15T05:41:51.362Z,36.00
2018-02-15T05:42:51.259Z,37.50
2018-02-15T05:43:51.273Z,35.40
2018-02-15T05:44:51.194Z,37.40
2018-02-15T05:45:51.181Z,36.70
2018-02-15T05:46:51.131Z,37.50
2018-02-15T05:47:51.197Z,38.30
2018-02-15T05:48:51.070Z,37.20
2018-02-15T05:49:51.105Z,38.70
2018-02-15T05:50:51.007Z,38.10
2018-02-15T05:51:51.015Z,38.40
2018-02-15T05:52:50.945Z,39.20
2018-02-15T05:53:50.926Z,36.10
2018-02-15T05:54:50.898Z,38.00
2018-02-15T05:55:50.938Z,38.30
2018-02-15T05:56:50.820Z,35.60
2018-02-15T05:57:50.853Z,37.10
2018-02-15T05:58:50.756Z,35.60
2018-02-15T05:59:50.760Z,34.90
2018-02-15T06:00:50.698Z,38.40
2018-02-15T06:01:50.772Z,35.10
2018-02-15T06:02:50.631Z,37.80
2018-02-15T06:03:50.681Z,39.50
2018-02-15T06:04:50.569Z,38.10
2018-02-15T06:05:50.583Z,39.90
2018-02-15T06:06:50.506Z,35.90
2018-02-15T06:07:50.504Z,37.40
2018-02-15T06:08:50.442Z,38.30
2018-02-15T06:09:50.513Z,40.20
2018-02-15T06:10:50.384Z,42.50
2018-02-15T06:11:50.424Z,38.80
2018-02-15T06:12:50.319Z,38.70
2018-02-15T06:13:50.335Z,36.60
2018-02-15T06:14:50.254Z,37.30
2018-02-15T06:15:50.243Z,36.40
2018-02-15T06:16:50.196Z,38.10
2018-02-15T06:17:50.256Z,36.00
2018-02-15T06:18:50.136Z,37.90
2018-02-15T06:19:50.170Z,41.20
2018-02-15T06:20:50.074Z,38.40
2018-02-15T06:21:50.123Z,37.70
2018-02-15T06:22:50.004Z,36.80
2018-02-15T06:23:50.088Z,37.50
2018-02-15T06:24:49.945Z,37.60
2018-02-15T06:25:50.001Z,35.80
2018-02-15T06:26:49.881Z,37.10
2018-02-15T06:27:49.909Z,36.50
2018-02-15T06:28:49.816Z,36.30
2018-02-15T06:29:49.819Z,38.70
2018-02-15T06:30:49.756Z,38.20
2018-02-15T06:31:49.833Z,39.90
2018-02-15T06:32:49.691Z,37.40
2018-02-15T06:33:49.743Z,39.50
2018-02-15T06:34:49.629Z,39.20
2018-02-15T06:35:49.653Z,35.30
2018-02-15T06:36:49.564Z,37.30
2018-02-15T06:37:49.562Z,38.70
2018-02-15T06:38:49.506Z,35.30
2018-02-15T06:39:49.575Z,38.40
2018-02-15T06:40:49.441Z,37.80
2018-02-15T06:41:49.488Z,38.80
2018-02-15T06:42:49.383Z,35.90
2018-02-15T06:43:49.395Z,37.30
2018-02-15T06:44:49.321Z,35.90
2018-02-15T06:45:49.303Z,37.20
2018-02-15T06:46:49.257Z,37.90
2018-02-15T06:47:49.316Z,36.70
2018-02-15T06:48:49.197Z,37.20
2018-02-15T06:49:49.226Z,40.70
2018-02-15T06:50:49.131Z,39.50
2018-02-15T06:51:49.138Z,40.60
2018-02-15T06:52:49.064Z,38.70
2018-02-15T06:53:49.051Z,39.00
2018-02-15T06:54:49.005Z,37.00
2018-02-15T06:55:49.063Z,37.90
2018-02-15T06:56:48.943Z,34.10
2018-02-15T06:57:48.971Z,34.60
2018-02-15T06:58:48.880Z,34.90
2018-02-15T06:59:48.882Z,33.60
2018-02-15T07:00:48.821Z,36.50
2018-02-15T07:01:48.886Z,36.00
2018-02-15T07:02:48.758Z,43.20
2018-02-15T07:03:48.802Z,39.30
2018-02-15T07:04:48.699Z,37.20
2018-02-15T07:05:49.624Z,36.30
2018-02-15T07:06:48.633Z,35.20
2018-02-15T07:07:48.726Z,40.90
2018-02-15T07:08:48.571Z,39.90
2018-02-15T07:09:48.738Z,35.00
2018-02-15T07:10:48.507Z,37.10
2018-02-15T07:11:48.473Z,37.80
2018-02-15T07:12:48.657Z,35.40
2018-02-15T07:13:48.411Z,36.00
2018-02-15T07:14:48.564Z,37.30
2018-02-15T07:15:48.351Z,36.10
2018-02-15T07:16:48.480Z,37.30
2018-02-15T07:17:48.288Z,40.70
2018-02-15T07:18:48.290Z,38.30
2018-02-15T07:19:48.227Z,40.40
2018-02-15T07:20:48.304Z,42.10
2018-02-15T07:21:48.161Z,83.60
2018-02-15T07:22:48.218Z,54.10
2018-02-15T07:23:48.102Z,39.20
2018-02-15T07:24:48.127Z,37.30
2018-02-15T07:25:48.039Z,38.80
2018-02-15T07:26:48.040Z,38.00
2018-02-15T07:27:47.977Z,37.40
2018-02-15T07:28:48.063Z,36.50
2018-02-15T07:29:47.915Z,38.40
2018-02-15T07:30:47.963Z,38.80
2018-02-15T07:31:47.853Z,35.00
2018-02-15T07:32:47.874Z,36.30
2018-02-15T07:33:47.794Z,36.70
2018-02-15T07:34:47.891Z,35.60
2018-02-15T07:35:47.728Z,36.90
2018-02-15T07:36:47.802Z,35.20
2018-02-15T07:37:47.666Z,33.90
2018-02-15T07:38:47.711Z,38.30
2018-02-15T07:39:47.608Z,35.30
2018-02-15T07:40:47.622Z,34.70
2018-02-15T07:41:47.544Z,38.30
2018-02-15T07:42:47.630Z,52.40
2018-02-15T07:43:47.476Z,57.30
2018-02-15T07:44:47.548Z,41.70
2018-02-15T07:45:47.423Z,38.90
2018-02-15T07:46:47.464Z,38.80
2018-02-15T07:47:47.356Z,39.10
2018-02-15T07:48:47.373Z,37.70
2018-02-15T07:49:47.296Z,36.00
2018-02-15T07:50:47.387Z,32.70
2018-02-15T07:51:47.233Z,34.40
2018-02-15T07:52:47.296Z,36.00
2018-02-15T07:53:47.173Z,34.80
2018-02-15T07:54:47.211Z,33.10
2018-02-15T07:55:47.116Z,34.70
2018-02-15T07:56:47.224Z,34.90
2018-02-15T07:57:47.049Z,36.20
2018-02-15T07:58:47.135Z,35.20
2018-02-15T07:59:46.990Z,33.80
2018-02-15T08:00:47.046Z,34.00
2018-02-15T08:01:46.925Z,33.80
2018-02-15T08:02:46.961Z,32.80
2018-02-15T08:03:46.864Z,34.40
2018-02-15T08:04:46.971Z,35.40
2018-02-15T08:05:46.802Z,33.90
2018-02-15T08:06:46.884Z,35.90
2018-02-15T08:07:46.741Z,33.60
2018-02-15T08:08:46.798Z,33.90
2018-02-15T08:09:46.679Z,35.30
2018-02-15T08:10:46.706Z,36.20
2018-02-15T08:11:46.620Z,36.00
2018-02-15T08:12:46.723Z,33.60
2018-02-15T08:13:46.557Z,35.40
2018-02-15T08:14:46.634Z,35.50
2018-02-15T08:15:46.496Z,34.00
2018-02-15T08:16:46.544Z,35.10
2018-02-15T08:17:46.481Z,36.20
2018-02-15T08:18:46.557Z,36.10
2018-02-15T08:19:46.370Z,40.30
2018-02-15T08:20:46.468Z,38.00
2018-02-15T08:21:46.313Z,36.50
2018-02-15T08:22:46.379Z,37.90
2018-02-15T08:23:46.250Z,37.20
2018-02-15T08:24:46.297Z,37.60
2018-02-15T08:25:46.186Z,39.90
2018-02-15T08:26:46.250Z,35.70
2018-02-15T08:27:46.127Z,35.80
2018-02-15T08:28:46.218Z,36.80
2018-02-15T08:29:46.063Z,36.60
2018-02-15T08:30:46.130Z,38.00
2018-02-15T08:31:46.003Z,37.10
2018-02-15T08:32:46.142Z,37.30
2018-02-15T08:33:45.940Z,37.40
2018-02-15T08:34:46.001Z,36.30
2018-02-15T08:35:45.881Z,37.60
2018-02-15T08:36:45.967Z,37.50
2018-02-15T08:37:45.818Z,36.60
2018-02-15T08:38:45.880Z,35.10
2018-02-15T08:39:45.758Z,34.80
2018-02-15T08:40:45.892Z,35.00
2018-02-15T08:41:45.700Z,34.30
2018-02-15T08:42:45.802Z,35.60
2018-02-15T08:43:45.634Z,36.30
2018-02-15T08:44:45.715Z,36.90
2018-02-15T08:45:45.571Z,33.50
2018-02-15T08:46:45.625Z,35.50
2018-02-15T08:47:45.513Z,33.10
2018-02-15T08:48:45.642Z,34.00
2018-02-15T08:49:45.451Z,32.60
2018-02-15T08:50:45.551Z,33.50
2018-02-15T08:51:45.389Z,34.80
2018-02-15T08:52:45.464Z,32.60
2018-02-15T08:53:45.331Z,32.40
2018-02-15T08:54:45.476Z,37.70
2018-02-15T08:55:45.265Z,37.10
2018-02-15T08:56:45.389Z,32.50
2018-02-15T08:57:45.206Z,33.50
2018-02-15T08:58:45.298Z,32.90
2018-02-15T08:59:45.147Z,34.70
2018-02-15T09:00:45.115Z,33.20
2018-02-15T09:01:45.085Z,34.60
2018-02-15T09:02:45.142Z,33.70
2018-02-15T09:03:45.024Z,35.60
2018-02-15T09:04:45.052Z,34.50
2018-02-15T09:05:44.962Z,35.90
2018-02-15T09:06:44.934Z,37.20
2018-02-15T09:07:44.901Z,32.30
2018-02-15T09:08:44.978Z,35.60
2018-02-15T09:09:44.839Z,33.60
2018-02-15T09:10:44.887Z,33.90
2018-02-15T09:11:44.781Z,35.20
2018-02-15T09:12:44.796Z,41.90
2018-02-15T09:13:44.717Z,34.40
2018-02-15T09:14:44.694Z,43.70
2018-02-15T09:15:44.803Z,49.60
2018-02-15T09:16:44.626Z,59.50
2018-02-15T09:17:44.716Z,47.10
2018-02-15T09:18:44.566Z,47.20
2018-02-15T09:19:44.728Z,48.80
2018-02-15T09:20:44.635Z,46.80
2018-02-15T09:21:44.476Z,55.00
2018-02-15T09:22:44.648Z,49.50
2018-02-15T09:23:44.414Z,40.40
2018-02-15T09:24:44.590Z,38.30
2018-02-15T09:25:44.354Z,37.70
2018-02-15T09:26:44.323Z,39.90
2018-02-15T09:27:44.472Z,39.50
2018-02-15T09:28:44.264Z,35.70
2018-02-15T09:29:44.387Z,36.10
2018-02-15T09:30:44.202Z,35.40
2018-02-15T09:31:44.296Z,39.40
2018-02-15T09:32:44.140Z,34.60
2018-02-15T09:33:44.311Z,35.50
2018-02-15T09:34:44.078Z,35.70
2018-02-15T09:35:44.227Z,35.20
2018-02-15T09:36:44.022Z,41.10
2018-02-15T09:37:44.137Z,34.80
2018-02-15T09:38:43.961Z,36.10
2018-02-15T09:39:44.150Z,34.70
2018-02-15T09:40:43.899Z,33.10
2018-02-15T09:41:43.960Z,34.50
2018-02-15T09:42:43.842Z,36.00
2018-02-15T09:43:43.873Z,33.80
2018-02-15T09:44:43.779Z,33.90
2018-02-15T09:45:43.820Z,34.00
2018-02-15T09:46:43.718Z,34.40
2018-02-15T09:47:43.804Z,33.20
2018-02-15T09:48:43.657Z,34.90
2018-02-15T09:49:43.704Z,37.30
2018-02-15T09:50:43.597Z,34.10
2018-02-15T09:51:43.619Z,32.50
2018-02-15T09:52:43.537Z,32.90
2018-02-15T09:53:43.634Z,32.40
2018-02-15T09:54:43.476Z,37.20
2018-02-15T09:55:43.546Z,36.60
2018-02-15T09:56:43.417Z,35.60
2018-02-15T09:57:43.457Z,36.40
2018-02-15T09:58:43.356Z,35.90
2018-02-15T09:59:43.371Z,35.50
2018-02-15T10:00:43.294Z,32.30
2018-02-15T10:01:43.383Z,32.40
2018-02-15T10:02:43.238Z,34.40
2018-02-15T10:03:43.293Z,32.90
2018-02-15T10:04:43.174Z,38.50
2018-02-15T10:05:43.202Z,39.00
2018-02-15T10:06:43.115Z,37.90
2018-02-15T10:07:43.118Z,38.30
2018-02-15T10:08:43.056Z,35.10
2018-02-15T10:09:43.131Z,35.00
2018-02-15T10:10:43.034Z,37.20
2018-02-15T10:11:42.963Z,33.10
2018-02-15T10:12:42.947Z,34.20
2018-02-15T10:13:42.905Z,34.70
2018-02-15T10:14:42.962Z,34.70
2018-02-15T10:15:42.842Z,35.20
2018-02-15T10:16:42.812Z,38.50
2018-02-15T10:17:42.880Z,36.90
2018-02-15T10:18:42.751Z,37.10
2018-02-15T10:19:42.801Z,36.10
2018-02-15T10:20:42.692Z,35.70
2018-02-15T10:21:42.703Z,34.40
2018-02-15T10:22:42.630Z,35.30
2018-02-15T10:23:43.918Z,33.40
2018-02-15T10:24:42.575Z,39.30
2018-02-15T10:25:42.638Z,37.10
2018-02-15T10:26:42.508Z,34.10
2018-02-15T10:27:42.537Z,37.30
2018-02-15T10:28:42.451Z,37.20
2018-02-15T10:29:42.453Z,37.40
2018-02-15T10:30:42.391Z,36.90
2018-02-15T10:31:42.463Z,34.80
2018-02-15T10:32:42.332Z,39.60
2018-02-15T10:33:42.377Z,36.80
2018-02-15T10:34:42.278Z,35.60
2018-02-15T10:35:42.288Z,35.10
2018-02-15T10:36:42.209Z,34.50
2018-02-15T10:37:42.197Z,36.90
2018-02-15T10:38:42.149Z,36.90
2018-02-15T10:39:42.214Z,40.00
2018-02-15T10:40:42.090Z,35.70
2018-02-15T10:41:42.125Z,35.40
2018-02-15T10:42:42.028Z,34.50
2018-02-15T10:43:42.036Z,34.00
2018-02-15T10:44:41.969Z,36.80
2018-02-15T10:45:42.049Z,38.00
2018-02-15T10:46:41.909Z,37.80
2018-02-15T10:47:41.964Z,38.60
2018-02-15T10:48:41.849Z,37.30
2018-02-15T10:49:41.873Z,35.30
2018-02-15T10:50:41.789Z,37.10
2018-02-15T10:51:41.785Z,37.10
2018-02-15T10:52:41.734Z,37.00
2018-02-15T10:53:41.798Z,36.30
2018-02-15T10:54:41.674Z,35.00
2018-02-15T10:55:41.713Z,37.60
2018-02-15T10:56:41.609Z,36.60
2018-02-15T10:57:41.622Z,36.00
2018-02-15T10:58:41.552Z,38.10
2018-02-15T10:59:41.634Z,36.70
2018-02-15T11:00:41.492Z,38.10
2018-02-15T11:01:41.548Z,35.40
2018-02-15T11:02:41.452Z,35.20
2018-02-15T11:03:41.462Z,33.50
2018-02-15T11:04:41.368Z,38.60
2018-02-15T11:05:41.369Z,37.60
2018-02-15T11:06:41.311Z,35.80
2018-02-15T11:07:41.383Z,35.50
2018-02-15T11:08:41.252Z,33.40
2018-02-15T11:09:41.295Z,37.40
2018-02-15T11:10:41.194Z,39.30
2018-02-15T11:11:41.207Z,36.30
2018-02-15T11:12:41.132Z,35.40
2018-02-15T11:13:41.109Z,36.70
2018-02-15T11:14:41.071Z,35.60
2018-02-15T11:15:41.132Z,36.20
2018-02-15T11:16:41.013Z,35.60
2018-02-15T11:17:41.044Z,35.00
2018-02-15T11:18:40.953Z,33.40
2018-02-15T11:19:40.957Z,35.80
2018-02-15T11:20:40.892Z,38.40
2018-02-15T11:21:40.987Z,34.70
2018-02-15T11:22:40.836Z,36.20
2018-02-15T11:23:41.904Z,35.30
2018-02-15T11:24:40.773Z,34.00
2018-02-15T11:25:40.794Z,33.40
2018-02-15T11:26:40.715Z,37.20
2018-02-15T11:27:40.705Z,36.60
2018-02-15T11:28:40.652Z,35.70
2018-02-15T11:29:40.628Z,34.10
2018-02-15T11:30:40.593Z,37.70
2018-02-15T11:31:40.625Z,34.70
2018-02-15T11:32:40.538Z,34.10
2018-02-15T11:33:40.542Z,36.50
2018-02-15T11:34:40.478Z,36.00
2018-02-15T11:35:40.557Z,36.00
2018-02-15T11:36:40.417Z,36.70
2018-02-15T11:37:40.467Z,34.40
2018-02-15T11:38:40.349Z,34.50
2018-02-15T11:39:40.380Z,35.10
2018-02-15T11:40:40.301Z,36.50
2018-02-15T11:41:40.293Z,37.30
2018-02-15T11:42:40.312Z,36.50
2018-02-15T11:43:40.304Z,36.20
2018-02-15T11:44:40.191Z,35.10
2018-02-15T11:45:40.241Z,34.40
2018-02-15T11:46:40.123Z,37.30
2018-02-15T11:47:40.126Z,35.30
2018-02-15T11:48:40.067Z,36.60
2018-02-15T11:49:40.175Z,35.90
2018-02-15T11:50:40.006Z,36.10
2018-02-15T11:51:40.052Z,35.70
2018-02-15T11:52:39.943Z,37.40
2018-02-15T11:53:39.964Z,38.40
2018-02-15T11:54:39.886Z,37.30
2018-02-15T11:55:39.874Z,37.40
2018-02-15T11:56:39.839Z,38.10
2018-02-15T11:57:39.887Z,36.80
2018-02-15T11:58:39.768Z,38.70
2018-02-15T11:59:39.799Z,36.50
2018-02-15T12:00:39.708Z,39.70
2018-02-15T12:01:39.712Z,36.60
2018-02-15T12:02:39.648Z,36.20
2018-02-15T12:03:39.730Z,39.40
2018-02-15T12:04:39.591Z,39.20
2018-02-15T12:05:39.641Z,38.90
2018-02-15T12:06:39.531Z,36.90
2018-02-15T12:07:39.551Z,34.70
2018-02-15T12:08:39.473Z,34.70
2018-02-15T12:09:39.462Z,35.50
2018-02-15T12:10:39.447Z,35.40
2018-02-15T12:11:39.474Z,35.40
2018-02-15T12:12:39.355Z,33.40
2018-02-15T12:13:39.385Z,35.50
2018-02-15T12:14:39.293Z,35.40
2018-02-15T12:15:39.297Z,38.00
2018-02-15T12:16:39.240Z,39.00
2018-02-15T12:17:39.312Z,38.10
2018-02-15T12:18:39.173Z,36.80
2018-02-15T12:19:39.258Z,37.40
2018-02-15T12:20:39.120Z,34.80
2018-02-15T12:21:39.135Z,34.40
2018-02-15T12:22:39.060Z,35.50
2018-02-15T12:23:39.045Z,37.30
2018-02-15T12:24:38.998Z,37.90
2018-02-15T12:25:39.059Z,37.70
2018-02-15T12:26:38.953Z,38.80
2018-02-15T12:27:38.973Z,43.10
2018-02-15T12:28:38.888Z,41.30
2018-02-15T12:29:38.883Z,42.50
2018-02-15T12:30:38.826Z,43.40
2018-02-15T12:31:38.897Z,46.80
2018-02-15T12:32:38.770Z,39.50
2018-02-15T12:33:38.810Z,35.60
2018-02-15T12:34:38.710Z,38.10
2018-02-15T12:35:38.719Z,41.50
2018-02-15T12:36:38.654Z,41.70
2018-02-15T12:37:38.737Z,36.70
2018-02-15T12:38:38.589Z,38.20
2018-02-15T12:39:38.646Z,38.30
2018-02-15T12:40:38.536Z,38.30
2018-02-15T12:41:38.560Z,37.50
2018-02-15T12:42:38.470Z,38.40
2018-02-15T12:43:38.468Z,36.10
2018-02-15T12:44:38.415Z,39.40
2018-02-15T12:45:38.483Z,40.50
2018-02-15T12:46:38.357Z,39.20
2018-02-15T12:47:38.393Z,41.30
2018-02-15T12:48:38.296Z,40.20
2018-02-15T12:49:38.305Z,41.60
2018-02-15T12:50:38.242Z,38.30
2018-02-15T12:51:38.319Z,41.60